createdAt,value
2018-09-25T00:00:15.982Z,1022.55
2018-09-25T00:01:15.880Z,1022.52
2018-09-25T00:02:15.874Z,1022.50
2018-09-25T00:03:15.880Z,1022.48
2018-09-25T00:04:15.854Z,1022.51
2018-09-25T00:05:15.836Z,1022.48
2018-09-25T00:06:15.864Z,1022.48
2018-09-25T00:07:15.817Z,1022.46
2018-09-25T00:08:15.843Z,1022.43
2018-09-25T00:09:15.798Z,1022.45
2018-09-25T00:10:15.829Z,1022.40
2018-09-25T00:11:15.768Z,1022.43
2018-09-25T00:12:15.801Z,1022.43
2018-09-25T00:13:15.755Z,1022.46
2018-09-25T00:14:15.789Z,1022.48
2018-09-25T00:15:15.727Z,1022.57
2018-09-25T00:16:15.723Z,1022.53
2018-09-25T00:17:15.707Z,1022.57
2018-09-25T00:18:15.773Z,1022.56
2018-09-25T00:19:15.687Z,1022.57
2018-09-25T00:20:15.829Z,1022.54
2018-09-25T00:21:15.663Z,1022.55
2018-09-25T00:22:15.655Z,1022.56
2018-09-25T00:23:15.655Z,1022.57
2018-09-25T00:24:15.662Z,1022.52
2018-09-25T00:25:15.629Z,1022.59
2018-09-25T00:26:15.621Z,1022.62
2018-09-25T00:27:15.634Z,1022.57
2018-09-25T00:28:15.628Z,1022.56
2018-09-25T00:29:15.583Z,1022.58
2018-09-25T00:30:15.609Z,1022.55
2018-09-25T00:31:15.561Z,1022.59
2018-09-25T00:32:15.552Z,1022.52
2018-09-25T00:33:15.573Z,1022.49
2018-09-25T00:34:15.546Z,1022.51
2018-09-25T00:35:15.569Z,1022.51
2018-09-25T00:36:15.617Z,1022.55
2018-09-25T00:37:15.497Z,1022.50
2018-09-25T00:38:15.489Z,1022.48
2018-09-25T00:39:15.498Z,1022.55
2018-09-25T00:40:15.491Z,1022.52
2018-09-25T00:41:15.484Z,1022.53
2018-09-25T00:42:15.488Z,1022.56
2018-09-25T00:43:15.433Z,1022.56
2018-09-25T00:44:15.467Z,1022.55
2018-09-25T00:45:15.417Z,1022.55
2018-09-25T00:46:15.406Z,1022.60
2018-09-25T00:47:15.399Z,1022.62
2018-09-25T00:48:15.432Z,1022.59
2018-09-25T00:49:15.399Z,1022.66
2018-09-25T00:50:15.415Z,1022.64
2018-09-25T00:51:15.356Z,1022.63
2018-09-25T00:52:15.348Z,1022.61
2018-09-25T00:53:15.342Z,1022.61
2018-09-25T00:54:15.363Z,1022.66
2018-09-25T00:55:15.310Z,1022.65
2018-09-25T00:56:15.348Z,1022.64
2018-09-25T00:57:15.288Z,1022.65
2018-09-25T00:58:15.286Z,1022.65
2018-09-25T00:59:15.274Z,1022.69
2018-09-25T01:00:15.300Z,1022.71
2018-09-25T01:01:15.256Z,1022.66
2018-09-25T01:02:15.245Z,1022.72
2018-09-25T01:03:15.236Z,1022.75
2018-09-25T01:04:15.223Z,1022.73
2018-09-25T01:05:15.224Z,1022.75
2018-09-25T01:06:15.244Z,1022.72
2018-09-25T01:07:15.188Z,1022.76
2018-09-25T01:08:15.170Z,1022.77
2018-09-25T01:09:15.187Z,1022.81
2018-09-25T01:10:15.154Z,1022.79
2018-09-25T01:11:15.196Z,1022.80
2018-09-25T01:12:15.163Z,1022.81
2018-09-25T01:13:15.120Z,1022.78
2018-09-25T01:14:15.114Z,1022.75
2018-09-25T01:15:15.113Z,1022.80
2018-09-25T01:16:15.090Z,1022.80
2018-09-25T01:17:15.142Z,1022.80
2018-09-25T01:18:15.113Z,1022.84
2018-09-25T01:19:15.119Z,1022.81
2018-09-25T01:20:15.048Z,1022.78
2018-09-25T01:21:15.048Z,1022.86
2018-09-25T01:22:15.032Z,1022.84
2018-09-25T01:23:15.029Z,1022.83
2018-09-25T01:24:15.060Z,1022.86
2018-09-25T01:25:15.034Z,1022.82
2018-09-25T01:26:14.993Z,1022.83
2018-09-25T01:27:14.982Z,1022.88
2018-09-25T01:28:14.968Z,1022.82
2018-09-25T01:29:14.957Z,1022.80
2018-09-25T01:30:14.981Z,1022.82
2018-09-25T01:31:14.985Z,1022.81
2018-09-25T01:32:14.936Z,1022.86
2018-09-25T01:33:14.921Z,1022.83
2018-09-25T01:34:14.907Z,1022.85
2018-09-25T01:35:14.891Z,1022.83
2018-09-25T01:36:14.912Z,1022.81
2018-09-25T01:37:14.903Z,1022.84
2018-09-25T01:38:14.860Z,1022.83
2018-09-25T01:39:14.849Z,1022.84
2018-09-25T01:40:14.849Z,1022.84
2018-09-25T01:41:14.828Z,1022.90
2018-09-25T01:42:14.863Z,1022.84
2018-09-25T01:43:14.867Z,1022.77
2018-09-25T01:44:14.800Z,1022.80
2018-09-25T01:45:14.790Z,1022.77
2018-09-25T01:46:14.780Z,1022.77
2018-09-25T01:47:14.766Z,1022.81
2018-09-25T01:48:14.791Z,1022.85
2018-09-25T01:49:14.780Z,1022.84
2018-09-25T01:50:14.739Z,1022.82
2018-09-25T01:51:14.725Z,1022.83
2018-09-25T01:52:14.722Z,1022.82
2018-09-25T01:53:14.704Z,1022.81
2018-09-25T01:54:14.734Z,1022.82
2018-09-25T01:55:14.731Z,1022.85
2018-09-25T01:56:14.676Z,1022.83
2018-09-25T01:57:14.662Z,1022.83
2018-09-25T01:58:14.660Z,1022.82
2018-09-25T01:59:14.645Z,1022.87
2018-09-25T02:00:14.692Z,1022.82
2018-09-25T02:01:14.628Z,1022.79
2018-09-25T02:02:14.634Z,1022.84
2018-09-25T02:03:14.610Z,1022.87
2018-09-25T02:04:14.600Z,1022.84
2018-09-25T02:05:14.587Z,1022.91
2018-09-25T02:06:14.604Z,1022.87
2018-09-25T02:07:14.566Z,1022.89
2018-09-25T02:08:14.605Z,1022.83
2018-09-25T02:09:14.544Z,1022.86
2018-09-25T02:10:14.536Z,1022.90
2018-09-25T02:11:14.564Z,1022.85
2018-09-25T02:12:14.547Z,1022.89
2018-09-25T02:13:14.499Z,1022.92
2018-09-25T02:14:14.510Z,1022.95
2018-09-25T02:15:14.510Z,1022.97
2018-09-25T02:16:14.504Z,1022.95
2018-09-25T02:17:14.466Z,1022.93
2018-09-25T02:18:15.091Z,1022.92
2018-09-25T02:19:14.434Z,1022.92
2018-09-25T02:20:14.433Z,1022.90
2018-09-25T02:21:14.425Z,1022.92
2018-09-25T02:22:14.429Z,1022.94
2018-09-25T02:23:14.455Z,1022.92
2018-09-25T02:24:14.420Z,1022.93
2018-09-25T02:25:14.373Z,1022.98
2018-09-25T02:26:14.364Z,1022.96
2018-09-25T02:27:14.364Z,1022.94
2018-09-25T02:28:14.358Z,1022.98
2018-09-25T02:29:14.391Z,1022.98
2018-09-25T02:30:14.351Z,1022.98
2018-09-25T02:31:14.311Z,1023.03
2018-09-25T02:32:14.311Z,1022.96
2018-09-25T02:33:14.290Z,1023.08
2018-09-25T02:34:14.280Z,1023.05
2018-09-25T02:35:14.274Z,1023.11
2018-09-25T02:36:14.464Z,1023.06
2018-09-25T02:37:14.267Z,1023.11
2018-09-25T02:38:14.255Z,1023.08
2018-09-25T02:39:14.234Z,1023.05
2018-09-25T02:40:14.260Z,1023.07
2018-09-25T02:41:14.209Z,1023.09
2018-09-25T02:42:14.229Z,1023.11
2018-09-25T02:43:14.208Z,1023.15
2018-09-25T02:44:14.175Z,1023.09
2018-09-25T02:45:15.079Z,1023.10
2018-09-25T02:46:14.154Z,1023.03
2018-09-25T02:47:14.145Z,1023.03
2018-09-25T02:48:14.224Z,1023.02
2018-09-25T02:49:14.127Z,1023.00
2018-09-25T02:50:14.112Z,1023.06
2018-09-25T02:51:14.106Z,1023.06
2018-09-25T02:52:14.105Z,1023.07
2018-09-25T02:53:14.092Z,1023.08
2018-09-25T02:54:14.130Z,1023.12
2018-09-25T02:55:14.061Z,1023.09
2018-09-25T02:56:14.059Z,1023.13
2018-09-25T02:57:14.049Z,1023.12
2018-09-25T02:58:14.034Z,1023.11
2018-09-25T02:59:14.028Z,1023.13
2018-09-25T03:00:14.057Z,1023.10
2018-09-25T03:01:14.005Z,1023.14
2018-09-25T03:02:13.990Z,1023.15
2018-09-25T03:03:13.985Z,1023.16
2018-09-25T03:04:13.970Z,1023.16
2018-09-25T03:05:13.959Z,1023.13
2018-09-25T03:06:14.027Z,1023.10
2018-09-25T03:07:13.955Z,1023.13
2018-09-25T03:08:14.079Z,1023.10
2018-09-25T03:09:13.969Z,1023.08
2018-09-25T03:10:13.929Z,1023.07
2018-09-25T03:11:14.003Z,1023.06
2018-09-25T03:12:13.951Z,1023.10
2018-09-25T03:13:13.904Z,1023.10
2018-09-25T03:14:13.907Z,1023.14
2018-09-25T03:15:13.883Z,1023.08
2018-09-25T03:16:13.841Z,1023.11
2018-09-25T03:17:13.839Z,1023.14
2018-09-25T03:18:13.863Z,1023.11
2018-09-25T03:19:13.882Z,1023.17
2018-09-25T03:20:13.804Z,1023.17
2018-09-25T03:21:13.797Z,1023.17
2018-09-25T03:22:13.786Z,1023.19
2018-09-25T03:23:13.770Z,1023.21
2018-09-25T03:24:13.795Z,1023.18
2018-09-25T03:25:13.788Z,1023.11
2018-09-25T03:26:13.766Z,1023.13
2018-09-25T03:27:13.746Z,1023.09
2018-09-25T03:28:13.720Z,1023.09
2018-09-25T03:29:13.709Z,1023.10
2018-09-25T03:30:13.740Z,1023.05
2018-09-25T03:31:13.690Z,1023.04
2018-09-25T03:32:13.724Z,1023.03
2018-09-25T03:33:13.667Z,1023.02
2018-09-25T03:34:13.666Z,1023.03
2018-09-25T03:35:13.644Z,1023.02
2018-09-25T03:36:13.670Z,1022.99
2018-09-25T03:37:13.623Z,1022.99
2018-09-25T03:38:13.613Z,1022.92
2018-09-25T03:39:13.613Z,1022.95
2018-09-25T03:40:13.607Z,1022.97
2018-09-25T03:41:13.604Z,1023.02
2018-09-25T03:42:13.607Z,1022.97
2018-09-25T03:43:13.559Z,1023.03
2018-09-25T03:44:13.564Z,1022.95
2018-09-25T03:45:13.546Z,1023.03
2018-09-25T03:46:13.563Z,1023.03
2018-09-25T03:47:13.550Z,1023.01
2018-09-25T03:48:13.551Z,1023.06
2018-09-25T03:49:13.501Z,1022.99
2018-09-25T03:50:13.509Z,1023.08
2018-09-25T03:51:13.666Z,1023.02
2018-09-25T03:52:13.469Z,1023.01
2018-09-25T03:53:13.466Z,1023.04
2018-09-25T03:54:13.482Z,1023.10
2018-09-25T03:55:13.478Z,1023.12
2018-09-25T03:56:13.426Z,1023.14
2018-09-25T03:57:13.418Z,1023.05
2018-09-25T03:58:13.419Z,1023.10
2018-09-25T03:59:13.400Z,1023.09
2018-09-25T04:00:13.458Z,1023.09
2018-09-25T04:01:13.774Z,1023.17
2018-09-25T04:02:13.364Z,1023.23
2018-09-25T04:03:13.353Z,1023.18
2018-09-25T04:04:13.354Z,1023.24
2018-09-25T04:05:13.434Z,1023.24
2018-09-25T04:06:13.631Z,1023.24
2018-09-25T04:07:13.310Z,1023.26
2018-09-25T04:08:13.322Z,1023.28
2018-09-25T04:09:13.300Z,1023.28
2018-09-25T04:10:13.289Z,1023.27
2018-09-25T04:11:13.308Z,1023.33
2018-09-25T04:12:13.433Z,1023.28
2018-09-25T04:13:13.272Z,1023.28
2018-09-25T04:14:13.291Z,1023.24
2018-09-25T04:15:13.324Z,1023.33
2018-09-25T04:16:13.230Z,1023.31
2018-09-25T04:17:13.250Z,1023.27
2018-09-25T04:18:13.240Z,1023.28
2018-09-25T04:19:13.212Z,1023.26
2018-09-25T04:20:13.251Z,1023.31
2018-09-25T04:21:13.173Z,1023.34
2018-09-25T04:22:13.160Z,1023.27
2018-09-25T04:23:13.172Z,1023.37
2018-09-25T04:24:13.204Z,1023.40
2018-09-25T04:25:13.125Z,1023.43
2018-09-25T04:26:13.140Z,1023.42
2018-09-25T04:27:13.118Z,1023.43
2018-09-25T04:28:13.143Z,1023.49
2018-09-25T04:29:13.089Z,1023.45
2018-09-25T04:30:13.108Z,1023.48
2018-09-25T04:31:13.097Z,1023.54
2018-09-25T04:32:13.077Z,1023.53
2018-09-25T04:33:13.047Z,1023.46
2018-09-25T04:34:13.047Z,1023.50
2018-09-25T04:35:13.058Z,1023.53
2018-09-25T04:36:13.047Z,1023.49
2018-09-25T04:37:13.044Z,1023.47
2018-09-25T04:38:13.009Z,1023.48
2018-09-25T04:39:12.980Z,1023.47
2018-09-25T04:40:13.015Z,1023.52
2018-09-25T04:41:12.977Z,1023.52
2018-09-25T04:42:13.006Z,1023.47
2018-09-25T04:43:12.942Z,1023.50
2018-09-25T04:44:12.937Z,1023.48
2018-09-25T04:45:12.939Z,1023.50
2018-09-25T04:46:12.912Z,1023.50
2018-09-25T04:47:12.904Z,1023.56
2018-09-25T04:48:12.949Z,1023.53
2018-09-25T04:49:12.875Z,1023.55
2018-09-25T04:50:12.871Z,1023.51
2018-09-25T04:51:12.861Z,1023.54
2018-09-25T04:52:12.860Z,1023.55
2018-09-25T04:53:12.829Z,1023.56
2018-09-25T04:54:12.850Z,1023.50
2018-09-25T04:55:12.856Z,1023.56
2018-09-25T04:56:12.819Z,1023.58
2018-09-25T04:57:12.807Z,1023.57
2018-09-25T04:58:12.788Z,1023.58
2018-09-25T04:59:12.768Z,1023.59
2018-09-25T05:00:12.788Z,1023.53
2018-09-25T05:01:12.752Z,1023.54
2018-09-25T05:02:12.737Z,1023.52
2018-09-25T05:03:12.733Z,1023.56
2018-09-25T05:04:12.766Z,1023.53
2018-09-25T05:05:12.719Z,1023.50
2018-09-25T05:06:12.750Z,1023.53
2018-09-25T05:07:12.697Z,1023.50
2018-09-25T05:08:12.674Z,1023.48
2018-09-25T05:09:12.664Z,1023.51
2018-09-25T05:10:12.662Z,1023.51
2018-09-25T05:11:12.680Z,1023.54
2018-09-25T05:12:12.708Z,1023.51
2018-09-25T05:13:12.640Z,1023.53
2018-09-25T05:14:12.633Z,1023.53
2018-09-25T05:15:12.603Z,1023.56
2018-09-25T05:16:12.589Z,1023.59
2018-09-25T05:17:12.599Z,1023.53
2018-09-25T05:18:12.656Z,1023.49
2018-09-25T05:19:12.560Z,1023.54
2018-09-25T05:20:12.555Z,1023.57
2018-09-25T05:21:12.541Z,1023.55
2018-09-25T05:22:12.534Z,1023.60
2018-09-25T05:23:12.541Z,1023.59
2018-09-25T05:24:12.555Z,1023.53
2018-09-25T05:25:12.505Z,1023.52
2018-09-25T05:26:12.494Z,1023.55
2018-09-25T05:27:12.483Z,1023.56
2018-09-25T05:28:12.479Z,1023.55
2018-09-25T05:29:12.458Z,1023.59
2018-09-25T05:30:12.518Z,1023.60
2018-09-25T05:31:12.448Z,1023.63
2018-09-25T05:32:12.442Z,1023.61
2018-09-25T05:33:12.411Z,1023.61
2018-09-25T05:34:12.412Z,1023.62
2018-09-25T05:35:12.392Z,1023.62
2018-09-25T05:36:12.418Z,1023.65
2018-09-25T05:37:12.432Z,1023.68
2018-09-25T05:38:12.412Z,1023.68
2018-09-25T05:39:12.362Z,1023.67
2018-09-25T05:40:12.342Z,1023.65
2018-09-25T05:41:12.333Z,1023.67
2018-09-25T05:42:12.369Z,1023.68
2018-09-25T05:43:12.318Z,1023.66
2018-09-25T05:44:12.375Z,1023.67
2018-09-25T05:45:12.301Z,1023.63
2018-09-25T05:46:12.291Z,1023.68
2018-09-25T05:47:12.266Z,1023.70
2018-09-25T05:48:12.299Z,1023.67
2018-09-25T05:49:12.243Z,1023.66
2018-09-25T05:50:12.241Z,1023.69
2018-09-25T05:51:12.292Z,1023.72
2018-09-25T05:52:12.233Z,1023.82
2018-09-25T05:53:12.211Z,1023.79
2018-09-25T05:54:12.225Z,1023.86
2018-09-25T05:55:12.194Z,1023.76
2018-09-25T05:56:12.175Z,1023.79
2018-09-25T05:57:12.170Z,1023.83
2018-09-25T05:58:12.154Z,1023.82
2018-09-25T05:59:12.168Z,1023.84
2018-09-25T06:00:12.172Z,1023.81
2018-09-25T06:01:12.137Z,1023.88
2018-09-25T06:02:12.110Z,1023.82
2018-09-25T06:03:12.097Z,1023.91
2018-09-25T06:04:12.097Z,1023.94
2018-09-25T06:05:12.094Z,1023.95
2018-09-25T06:06:12.143Z,1024.05
2018-09-25T06:07:12.074Z,1023.98
2018-09-25T06:08:12.050Z,1024.01
2018-09-25T06:09:12.074Z,1024.03
2018-09-25T06:10:12.025Z,1024.06
2018-09-25T06:11:12.026Z,1024.04
2018-09-25T06:12:12.102Z,1023.98
2018-09-25T06:13:11.998Z,1024.00
2018-09-25T06:14:11.988Z,1024.05
2018-09-25T06:15:12.987Z,1024.06
2018-09-25T06:16:11.985Z,1024.04
2018-09-25T06:17:11.959Z,1024.01
2018-09-25T06:18:11.982Z,1024.06
2018-09-25T06:19:11.973Z,1024.10
2018-09-25T06:20:11.924Z,1024.08
2018-09-25T06:21:11.923Z,1024.11
2018-09-25T06:22:11.913Z,1024.03
2018-09-25T06:23:11.894Z,1024.10
2018-09-25T06:24:11.919Z,1024.08
2018-09-25T06:25:11.917Z,1024.07
2018-09-25T06:26:11.867Z,1024.11
2018-09-25T06:27:11.857Z,1024.13
2018-09-25T06:28:11.841Z,1024.10
2018-09-25T06:29:11.829Z,1024.08
2018-09-25T06:30:11.860Z,1024.13
2018-09-25T06:31:11.861Z,1024.19
2018-09-25T06:32:11.800Z,1024.19
2018-09-25T06:33:11.814Z,1024.20
2018-09-25T06:34:11.780Z,1024.20
2018-09-25T06:35:11.773Z,1024.15
2018-09-25T06:36:11.797Z,1024.17
2018-09-25T06:37:11.790Z,1024.24
2018-09-25T06:38:11.748Z,1024.26
2018-09-25T06:39:11.729Z,1024.25
2018-09-25T06:40:11.721Z,1024.21
2018-09-25T06:41:11.702Z,1024.19
2018-09-25T06:42:11.722Z,1024.26
2018-09-25T06:43:11.761Z,1024.23
2018-09-25T06:44:11.670Z,1024.33
2018-09-25T06:45:11.660Z,1024.31
2018-09-25T06:46:11.651Z,1024.26
2018-09-25T06:47:11.704Z,1024.24
2018-09-25T06:48:11.665Z,1024.30
2018-09-25T06:49:11.673Z,1024.32
2018-09-25T06:50:11.610Z,1024.36
2018-09-25T06:51:11.601Z,1024.39
2018-09-25T06:52:11.592Z,1024.40
2018-09-25T06:53:11.588Z,1024.32
2018-09-25T06:54:11.605Z,1024.34
2018-09-25T06:55:11.599Z,1024.35
2018-09-25T06:56:11.583Z,1024.45
2018-09-25T06:57:11.539Z,1024.40
2018-09-25T06:58:11.529Z,1024.41
2018-09-25T06:59:11.511Z,1024.40
2018-09-25T07:00:11.541Z,1024.47
2018-09-25T07:01:11.511Z,1024.51
2018-09-25T07:02:11.540Z,1024.46
2018-09-25T07:03:12.050Z,1024.49
2018-09-25T07:04:11.461Z,1024.44
2018-09-25T07:05:11.454Z,1024.48
2018-09-25T07:06:11.477Z,1024.49
2018-09-25T07:07:11.429Z,1024.51
2018-09-25T07:08:11.425Z,1024.48
2018-09-25T07:09:11.665Z,1024.52
2018-09-25T07:10:11.595Z,1024.55
2018-09-25T07:11:11.394Z,1024.58
2018-09-25T07:12:11.438Z,1024.61
2018-09-25T07:13:11.367Z,1024.60
2018-09-25T07:14:11.368Z,1024.63
2018-09-25T07:15:11.353Z,1024.68
2018-09-25T07:16:11.391Z,1024.68
2018-09-25T07:17:11.330Z,1024.70
2018-09-25T07:18:11.357Z,1024.70
2018-09-25T07:19:11.302Z,1024.71
2018-09-25T07:20:11.299Z,1024.72
2018-09-25T07:21:11.342Z,1024.64
2018-09-25T07:22:11.282Z,1024.72
2018-09-25T07:23:11.265Z,1024.73
2018-09-25T07:24:11.288Z,1024.71
2018-09-25T07:25:11.297Z,1024.74
2018-09-25T07:26:11.228Z,1024.80
2018-09-25T07:27:11.232Z,1024.84
2018-09-25T07:28:11.218Z,1024.86
2018-09-25T07:29:11.203Z,1024.87
2018-09-25T07:30:11.223Z,1024.88
2018-09-25T07:31:11.221Z,1024.80
2018-09-25T07:32:11.169Z,1024.76
2018-09-25T07:33:11.176Z,1024.84
2018-09-25T07:34:11.176Z,1024.82
2018-09-25T07:35:11.136Z,1024.85
2018-09-25T07:36:11.169Z,1024.83
2018-09-25T07:37:11.115Z,1024.84
2018-09-25T07:38:11.108Z,1024.80
2018-09-25T07:39:11.090Z,1024.86
2018-09-25T07:40:11.144Z,1024.81
2018-09-25T07:41:11.071Z,1024.81
2018-09-25T07:42:11.095Z,1024.78
2018-09-25T07:43:11.057Z,1024.83
2018-09-25T07:44:11.045Z,1024.83
2018-09-25T07:45:11.031Z,1024.82
2018-09-25T07:46:11.087Z,1024.86
2018-09-25T07:47:11.011Z,1024.87
2018-09-25T07:48:11.105Z,1024.84
2018-09-25T07:49:10.994Z,1024.88
2018-09-25T07:50:10.975Z,1024.87
2018-09-25T07:51:10.984Z,1024.89
2018-09-25T07:52:10.974Z,1024.89
2018-09-25T07:53:10.956Z,1024.91
2018-09-25T07:54:10.963Z,1024.93
2018-09-25T07:55:10.936Z,1024.97
2018-09-25T07:56:10.931Z,1024.96
2018-09-25T07:57:10.903Z,1025.00
2018-09-25T07:58:10.990Z,1024.94
2018-09-25T07:59:10.889Z,1024.92
2018-09-25T08:00:10.914Z,1024.93
2018-09-25T08:01:10.863Z,1024.94
2018-09-25T08:02:10.856Z,1024.94
2018-09-25T08:03:10.856Z,1024.95
2018-09-25T08:04:10.852Z,1024.94
2018-09-25T08:05:10.872Z,1024.92
2018-09-25T08:06:10.843Z,1024.89
2018-09-25T08:07:10.806Z,1024.94
2018-09-25T08:08:10.789Z,1024.93
2018-09-25T08:09:10.833Z,1024.89
2018-09-25T08:10:10.765Z,1024.91
2018-09-25T08:11:10.771Z,1024.95
2018-09-25T08:12:10.773Z,1024.94
2018-09-25T08:13:10.736Z,1024.99
2018-09-25T08:14:10.731Z,1025.01
2018-09-25T08:15:10.717Z,1024.99
2018-09-25T08:16:10.726Z,1025.02
2018-09-25T08:17:10.694Z,1025.04
2018-09-25T08:18:10.717Z,1025.03
2018-09-25T08:19:10.680Z,1025.08
2018-09-25T08:20:10.737Z,1025.08
2018-09-25T08:21:10.671Z,1025.07
2018-09-25T08:22:10.644Z,1025.07
2018-09-25T08:23:10.632Z,1025.04
2018-09-25T08:24:10.656Z,1025.06
2018-09-25T08:25:10.613Z,1025.12
2018-09-25T08:26:10.619Z,1025.08
2018-09-25T08:27:10.586Z,1025.09
2018-09-25T08:28:10.589Z,1025.13
2018-09-25T08:29:10.571Z,1025.12
2018-09-25T08:30:10.587Z,1025.19
2018-09-25T08:31:10.558Z,1025.18
2018-09-25T08:32:10.535Z,1025.17
2018-09-25T08:33:10.582Z,1025.14
2018-09-25T08:34:10.517Z,1025.17
2018-09-25T08:35:10.508Z,1025.14
2018-09-25T08:36:10.528Z,1025.15
2018-09-25T08:37:10.486Z,1025.17
2018-09-25T08:38:10.500Z,1025.18
2018-09-25T08:39:10.556Z,1025.20
2018-09-25T08:40:10.453Z,1025.20
2018-09-25T08:41:10.449Z,1025.18
2018-09-25T08:42:10.467Z,1025.20
2018-09-25T08:43:10.417Z,1025.20
2018-09-25T08:44:10.409Z,1025.16
2018-09-25T08:45:10.428Z,1025.20
2018-09-25T08:46:10.384Z,1025.20
2018-09-25T08:47:10.379Z,1025.26
2018-09-25T08:48:10.398Z,1025.23
2018-09-25T08:49:10.352Z,1025.18
2018-09-25T08:50:10.340Z,1025.20
2018-09-25T08:51:10.387Z,1025.18
2018-09-25T08:52:10.323Z,1025.23
2018-09-25T08:53:10.345Z,1025.20
2018-09-25T08:54:10.355Z,1025.22
2018-09-25T08:55:10.300Z,1025.24
2018-09-25T08:56:10.281Z,1025.16
2018-09-25T08:57:10.297Z,1025.20
2018-09-25T08:58:10.269Z,1025.23
2018-09-25T08:59:10.249Z,1025.30
2018-09-25T09:00:10.270Z,1025.24
2018-09-25T09:01:10.311Z,1025.23
2018-09-25T09:02:10.220Z,1025.33
2018-09-25T09:03:10.215Z,1025.29
2018-09-25T09:04:10.251Z,1025.21
2018-09-25T09:05:10.184Z,1025.23
2018-09-25T09:06:10.209Z,1025.28
2018-09-25T09:07:10.168Z,1025.26
2018-09-25T09:08:10.164Z,1025.30
2018-09-25T09:09:10.181Z,1025.27
2018-09-25T09:10:10.129Z,1025.25
2018-09-25T09:11:10.128Z,1025.26
2018-09-25T09:12:10.143Z,1025.28
2018-09-25T09:13:10.094Z,1025.27
2018-09-25T09:14:10.085Z,1025.25
2018-09-25T09:15:10.091Z,1025.31
2018-09-25T09:16:10.078Z,1025.34
2018-09-25T09:17:10.057Z,1025.33
2018-09-25T09:18:10.079Z,1025.25
2018-09-25T09:19:10.047Z,1025.27
2018-09-25T09:20:10.094Z,1025.20
2018-09-25T09:21:10.063Z,1025.19
2018-09-25T09:22:10.007Z,1025.24
2018-09-25T09:23:09.989Z,1025.16
2018-09-25T09:24:10.007Z,1025.18
2018-09-25T09:25:09.994Z,1025.20
2018-09-25T09:26:09.958Z,1025.23
2018-09-25T09:27:10.009Z,1025.22
2018-09-25T09:28:09.935Z,1025.19
2018-09-25T09:29:09.921Z,1025.21
2018-09-25T09:30:09.946Z,1025.24
2018-09-25T09:31:09.902Z,1025.23
2018-09-25T09:32:09.901Z,1025.24
2018-09-25T09:33:09.903Z,1025.23
2018-09-25T09:34:09.877Z,1025.23
2018-09-25T09:35:09.860Z,1025.27
2018-09-25T09:36:09.892Z,1025.26
2018-09-25T09:37:09.851Z,1025.19
2018-09-25T09:38:09.835Z,1025.26
2018-09-25T09:39:09.859Z,1025.22
2018-09-25T09:40:09.818Z,1025.20
2018-09-25T09:41:09.891Z,1025.24
2018-09-25T09:42:09.818Z,1025.27
2018-09-25T09:43:09.779Z,1025.23
2018-09-25T09:44:09.776Z,1025.23
2018-09-25T09:45:09.782Z,1025.26
2018-09-25T09:46:09.777Z,1025.25
2018-09-25T09:47:09.733Z,1025.19
2018-09-25T09:48:09.768Z,1025.25
2018-09-25T09:49:09.713Z,1025.24
2018-09-25T09:50:09.702Z,1025.22
2018-09-25T09:51:09.701Z,1025.22
2018-09-25T09:52:09.680Z,1025.21
2018-09-25T09:53:09.739Z,1025.14
2018-09-25T09:54:09.727Z,1025.21
2018-09-25T09:55:09.654Z,1025.25
2018-09-25T09:56:09.639Z,1025.18
2018-09-25T09:57:09.656Z,1025.22
2018-09-25T09:58:09.618Z,1025.20
2018-09-25T09:59:09.605Z,1025.21
2018-09-25T10:00:09.632Z,1025.23
2018-09-25T10:01:09.615Z,1025.17
2018-09-25T10:02:09.575Z,1025.20
2018-09-25T10:03:09.570Z,1025.21
2018-09-25T10:04:09.558Z,1025.22
2018-09-25T10:05:09.550Z,1025.23
2018-09-25T10:06:09.574Z,1025.22
2018-09-25T10:07:09.528Z,1025.28
2018-09-25T10:08:09.522Z,1025.27
2018-09-25T10:09:09.669Z,1025.25
2018-09-25T10:10:09.541Z,1025.27
2018-09-25T10:11:09.486Z,1025.27
2018-09-25T10:12:09.498Z,1025.29
2018-09-25T10:13:09.498Z,1025.35
2018-09-25T10:14:09.443Z,1025.36
2018-09-25T10:15:09.446Z,1025.39
2018-09-25T10:16:09.478Z,1025.35
2018-09-25T10:17:09.411Z,1025.37
2018-09-25T10:18:09.433Z,1025.37
2018-09-25T10:19:09.394Z,1025.37
2018-09-25T10:20:09.383Z,1025.38
2018-09-25T10:21:09.424Z,1025.40
2018-09-25T10:22:09.362Z,1025.36
2018-09-25T10:23:09.348Z,1025.37
2018-09-25T10:24:09.370Z,1025.35
2018-09-25T10:25:09.340Z,1025.35
2018-09-25T10:26:09.317Z,1025.35
2018-09-25T10:27:09.342Z,1025.35
2018-09-25T10:28:09.299Z,1025.34
2018-09-25T10:29:09.295Z,1025.31
2018-09-25T10:30:09.307Z,1025.35
2018-09-25T10:31:09.267Z,1025.31
2018-09-25T10:32:09.249Z,1025.32
2018-09-25T10:33:09.278Z,1025.36
2018-09-25T10:34:09.249Z,1025.32
2018-09-25T10:35:09.223Z,1025.34
2018-09-25T10:36:09.240Z,1025.28
2018-09-25T10:37:09.203Z,1025.28
2018-09-25T10:38:09.188Z,1025.20
2018-09-25T10:39:09.258Z,1025.23
2018-09-25T10:40:09.167Z,1025.32
2018-09-25T10:41:09.303Z,1025.32
2018-09-25T10:42:09.198Z,1025.18
2018-09-25T10:43:09.133Z,1025.20
2018-09-25T10:44:09.123Z,1025.18
2018-09-25T10:45:09.140Z,1025.17
2018-09-25T10:46:09.101Z,1025.14
2018-09-25T10:47:09.096Z,1025.12
2018-09-25T10:48:09.135Z,1025.08
2018-09-25T10:49:09.069Z,1025.10
2018-09-25T10:50:09.119Z,1025.05
2018-09-25T10:51:09.105Z,1025.08
2018-09-25T10:52:09.044Z,1025.04
2018-09-25T10:53:09.028Z,1025.07
2018-09-25T10:54:09.052Z,1025.11
2018-09-25T10:55:09.023Z,1025.07
2018-09-25T10:56:09.079Z,1025.08
2018-09-25T10:57:08.987Z,1025.12
2018-09-25T10:58:09.002Z,1025.15
2018-09-25T10:59:08.966Z,1025.11
2018-09-25T11:00:08.989Z,1025.10
2018-09-25T11:01:08.980Z,1025.12
2018-09-25T11:02:08.931Z,1025.15
2018-09-25T11:03:09.062Z,1025.09
2018-09-25T11:04:08.911Z,1025.11
2018-09-25T11:05:08.903Z,1025.19
2018-09-25T11:06:08.947Z,1025.11
2018-09-25T11:07:08.876Z,1025.20
2018-09-25T11:08:08.868Z,1025.33
2018-09-25T11:09:08.856Z,1025.37
2018-09-25T11:10:08.904Z,1025.31
2018-09-25T11:11:08.845Z,1025.36
2018-09-25T11:12:08.903Z,1025.33
2018-09-25T11:13:08.820Z,1025.29
2018-09-25T11:14:08.809Z,1025.26
2018-09-25T11:15:08.796Z,1025.11
2018-09-25T11:16:08.789Z,1024.95
2018-09-25T11:17:08.776Z,1025.01
2018-09-25T11:18:08.838Z,1025.26
2018-09-25T11:19:08.750Z,1025.22
2018-09-25T11:20:08.743Z,1025.22
2018-09-25T11:21:08.744Z,1025.19
2018-09-25T11:22:08.717Z,1025.16
2018-09-25T11:23:08.710Z,1025.23
2018-09-25T11:24:08.810Z,1025.18
2018-09-25T11:25:08.693Z,1025.21
2018-09-25T11:26:08.682Z,1025.13
2018-09-25T11:27:08.666Z,1025.12
2018-09-25T11:28:08.659Z,1025.10
2018-09-25T11:29:08.653Z,1025.10
2018-09-25T11:30:08.668Z,1025.12
2018-09-25T11:31:08.650Z,1025.10
2018-09-25T11:32:08.611Z,1025.08
2018-09-25T11:33:08.601Z,1025.08
2018-09-25T11:34:08.590Z,1025.06
2018-09-25T11:35:08.610Z,1025.13
2018-09-25T11:36:08.607Z,1025.08
2018-09-25T11:37:08.599Z,1025.06
2018-09-25T11:38:08.560Z,1025.06
2018-09-25T11:39:08.536Z,1025.02
2018-09-25T11:40:08.534Z,1024.98
2018-09-25T11:41:08.573Z,1024.96
2018-09-25T11:42:08.547Z,1024.93
2018-09-25T11:43:08.536Z,1024.88
2018-09-25T11:44:08.480Z,1024.74
2018-09-25T11:45:08.479Z,1024.87
2018-09-25T11:46:08.462Z,1024.99
2018-09-25T11:47:08.524Z,1024.89
2018-09-25T11:48:08.468Z,1024.91
2018-09-25T11:49:08.457Z,1024.91
2018-09-25T11:50:08.421Z,1024.83
2018-09-25T11:51:08.409Z,1024.86
2018-09-25T11:52:08.397Z,1024.85
2018-09-25T11:53:08.397Z,1024.86
2018-09-25T11:54:08.405Z,1024.77
2018-09-25T11:55:08.438Z,1024.82
2018-09-25T11:56:08.360Z,1024.88
2018-09-25T11:57:08.347Z,1024.89
2018-09-25T11:58:08.334Z,1024.89
2018-09-25T11:59:08.322Z,1024.89
2018-09-25T12:00:08.344Z,1024.83
2018-09-25T12:01:08.328Z,1024.84
2018-09-25T12:02:08.325Z,1024.88
2018-09-25T12:03:08.278Z,1024.71
2018-09-25T12:04:08.273Z,1024.76
2018-09-25T12:05:08.256Z,1024.72